Decoded Metar for KWST (WESTERLY in RI, USA) (IATA:WST) | Meteo·Mobile Aviation Weather
aviador You're here:

KWST Decoded Metar

WESTERLY in RI, USA
Report Time2019-03-19 17:53:00
UTC Time2019-03-19 18:44:56
Flight Rules vfr VFR
Wind220° at 12 Gusting to 19 kt
W.Decomp.*RWY 25: 11.6 kt HW 3.1 kt LCW
RWY 32: 1.0 kt HW 12 kt LCW
W.Rank220° ranks 3
Current wind is above 220° avg. (7.3)
Visibility9999 m
Phenomena:N/A
Clouds:N/A
Expected CloudBase > 5,200 ft AGL from Temp-Dew spread
CeilingNone
Temp07°C (ISA -8)
Dew Point-6°C (39% RH)
AAT-0.0°C
QNH1029 hPa
Density Alt-1,362 ft
Elevation69 ft
Report Wrong Elevation
Raw Report
KWST 191753Z AUTO 22012G19KT 10SM CLR 07/M06 A3038 RMK AO2 SLP287
T00721061 10083 20006 58009=

Extra information for KWST:More info

Metar Taf Metar & Taf Last 4 Metars F.Rules Stats Wind Profile Meteogram Temp Stats Airport Information Weather charts Add Link Nearby VenuesMetar ALERT Operation Metar Decoded Social comments

AIRNAV info for KWST